aviador You're here:

LEAS Decoded Metar

ASTURIAS in SPAIN
Report Time2017-09-20 16:00:00
UTC Time2017-09-20 16:27:28
Flight Rules vfr VFR
WindVRB at 02 kt
Visibility9999 m
Phenomena:N/A
Clouds:N/A
Expected CloudBase > 2,000 ft AGL from Temp-Dew spread
CeilingNone
Temp19°C (ISA +5)
Dew Point14°C (73% RH)
QNH1018 hPa
Density Alt1,056 ft
Elevation440 ft
Report Wrong Elevation
Raw Report
LEAS 201600Z VRB02KT CAVOK 19/14 Q1018 NOSIG=

Extra information for LEAS:More info

Metar Taf Metar & Taf Last 4 Metars F.Rules Stats Wind Profile Meteogram Temp Stats Airport Information Weather charts Add Link Nearby VenuesMetar ALERT Operation Metar Decoded Social comments